Logo AVAMET
Benvolgut visitant, si us plau, ingressa Recuperar contrasenya
AVAMET paisatges

Oriola R. de Bonanza

Dades diàries. Acumulats / Últims 30 dies disponibles

Data Temperatura (°C) Humitat rel. (%) Pressió rel. (hPa) Vent (km/h) Precipitació
Mínima Mitjana Màxima Amplitud
tèrmica
Mínima Mitjana Màxima Mínima Mitjana Màxima Predom. Mitjana Ràfega
màxima
Total
(mm)
Índex-n
Mínima Mitjana Màxima Mínima Mitjana Màxima n
0 a 1
P0 max
mm 5'
Dades mensuals acumulades fins l'últim dia disponible
03/2020 6,7 11,0 15,2 15,4 12,1 20,3 30,0 23,3 24 67 96 1.004 1.017 1.027   5,5 70,8 122,8
Dades anuals acumulades fins l'últim dia disponible
2020 2,3 9,3 15,2 14,2 10,5 19,8 30,0 27,7 20 71 97 1.004 1.022 1.036   4,1 70,8 209,8
Últims 30 dies disponibles
30-03-2020 9,4     12,9     16,8 7,4 64 79 89 1.011 1.012 1.015 SSE 4,8 32,2 0,0
29-03-2020 6,7     14,0     22,4 15,7 38 69 92 1.014 1.017 1.020 S 3,4 30,6 0,0
28-03-2020 8,5     12,4     17,6 9,1 48 73 91 1.016 1.017 1.020 SSO 3,1 29,0 2,8 0,58 1,30
27-03-2020 9,5     10,7     12,1 2,6 65 77 87 1.011 1.013 1.016 SSO 4,9 33,8 5,8 0,20 0,60
26-03-2020 8,3     13,1     19,9 11,6 31 73 95 1.006 1.009 1.015 SSE 5,3 54,7 0,8 0,20
25-03-2020 10,1     12,5     15,4 5,3 62 74 90 1.015 1.016 1.017 S 4,7 24,1 2,2 0,42 1,20
24-03-2020 12,3     13,2     14,1 1,8 71 84 88 1.013 1.014 1.016 SSE 11,7 69,2 58,8 0,40 2,40
23-03-2020 10,9     13,4     17,2 6,3 75 88 96 1.013 1.014 1.016 ESE 7,5 45,1 11,2 0,25 1,40
22-03-2020 8,7     11,5     14,9 6,2 78 90 94 1.011 1.012 1.014 S 1,2 16,1 18,4 0,63 5,30
21-03-2020 10,9     13,4     17,4 6,5 67 84 93 1.012 1.013 1.016 SSE 3,5 27,4 21,4 0,36 2,20
20-03-2020 13,4     14,8     16,6 3,2 61 72 82 1.015 1.017 1.019 ESE 6,8 30,6 0,0
19-03-2020 10,6     15,0     17,8 7,2 63 74 86 1.019 1.021 1.024 SE 6,9 35,4 0,0
18-03-2020 10,3     15,7     19,2 8,9 55 71 89 1.023 1.024 1.026 SE 6,8 40,2 0,0
17-03-2020 8,2     13,1     18,1 9,9 68 81 89 1.019 1.022 1.026 SSE 3,7 45,1 0,6
16-03-2020 8,9     13,1     16,7 7,8 61 82 90 1.011 1.013 1.019 S 3,4 51,5 0,8
15-03-2020 12,1     15,7     19,3 7,2 62 80 92 1.015 1.017 1.021 SE 4,5 25,7 0,0
14-03-2020 10,9     15,8     21,9 11,0 55 77 89 1.018 1.020 1.022 SSE 3,0 24,1 0,0
13-03-2020 11,8     16,8     24,1 12,3 42 65 80 1.016 1.018 1.020 S 3,7 29,0 0,0
12-03-2020 11,1     18,2     27,0 15,9 38 65 91 1.016 1.019 1.023 S 1,7 20,9 0,0
11-03-2020 11,6     19,0     30,0 18,4 30 62 79 1.020 1.022 1.025 S 2,7 25,7 0,0
10-03-2020 12,0     17,5     23,1 11,1 34 56 77 1.022 1.025 1.027 S 4,3 27,4 0,0
09-03-2020 15,2     19,8     24,0 8,8 24 38 52 1.019 1.022 1.024 SSO 5,9 35,4 0,0
08-03-2020 7,7     15,9     23,7 16,0 28 56 82 1.021 1.023 1.025 S 4,2 27,4 0,0
07-03-2020 12,1     15,3     20,1 8,0 32 41 67 1.021 1.023 1.025 S 6,2 46,7 0,0
06-03-2020 14,0     16,4     19,4 5,4 27 40 51 1.014 1.017 1.022 S 9,0 59,5 0,0
05-03-2020 11,0     18,7     25,8 14,8 37 53 79 1.008 1.013 1.017 SSO 7,1 49,9 0,0
04-03-2020 15,2     20,1     24,8 9,6 43 55 67 1.017 1.018 1.021 SSE 6,8 45,1 0,0
03-03-2020 10,0     16,6     23,5 13,5 36 51 69 1.013 1.017 1.019 SSO 9,1 62,8 0,0
02-03-2020 14,2     19,4     24,9 10,7 28 44 59 1.004 1.009 1.018 SSE 12,3 70,8 0,0
01-03-2020 14,7     18,9     22,0 7,3 43 56 74 1.013 1.014 1.016 SSO 5,4 37,0 0,0
Últims 13 mesos disponibles
02/2020 4,9 9,6 14,2 15,0 15,7 21,6 26,6 21,7 42 72 86 1.015 1.026 1.033 S 3,1 54,7 2,2
01/2020 2,3 6,9 12,8 11,8 10,5 16,8 22,2 19,9 62 74 88 1.013 1.023 1.030 SO 3,7 64,4 84,8
12/2019 5,7 10,2 18,4 13,9 10,7 17,9 23,0 17,3 42 72 93 1.005 1.018 1.032 SO 4,1 75,6 43,6
11/2019 5,4 11,7 20,1 16,0 14,6 19,8 28,4 23,0 44 58 92 1.000 1.012 1.019 SSO 6,4 77,2 12,8
10/2019 10,4 15,5 21,1 20,5 16,9 26,4 34,6 24,2 45 70 86 1.009 1.017 1.022 S 2,8 58,0 26,8
09/2019 15,9 20,2 23,9 24,3 22,2 29,1 34,3 18,4 46 74 86 1.010 1.017 1.022 S 4,1 69,0 503,4
08/2019 19,1 22,2 25,2 27,3 28,8 33,2 41,8 22,7 47 69 79 1.011 1.016 1.020 SE 4,6 60,0 16,2
07/2019 20,4 22,6 26,4 27,9 29,4 33,6 39,8 19,4 36 60 75 1.006 1.014 1.020 SE 5,7 52,0 0,2
06/2019 13,4 18,0 22,7 24,2 24,2 30,1 35,9 22,5 38 59 73 1.009 1.015 1.022 SSE 5,6 50,0 0,6
05/2019 11,2 14,9 21,4 20,3 21,7 26,2 32,2 21,0 45 63 74 1.006 1.015 1.025 SSE 5,0 63,0 4,0
04/2019 8,6 12,0 15,0 16,4 14,6 21,5 28,8 20,2 44 64 89 1.000 1.013 1.025 S 5,6 69,0 127,2
03/2019 4,4 8,5 13,1 14,5 13,6 21,0 28,2 23,8 37 63 88 1.011 1.023 1.031 S 3,8 52,0 26,6
02/2019 4,1 6,8 11,1 12,7 14,5 19,6 27,1 23,0 34 63 79 997 1.025 1.033 SSO 3,7 66,0 0,4
Tots els anys disponibles
2019 4,1 15,0 26,4 20,0 10,7 25,5 41,8 37,7 34 65 93 997 1.017 1.033 SSE 4,7 77,2 761,8
Temperatura (°C)
Humitat relativa (%)
Velocitat del vent i ràfega màxima (km/h)
Direcció del vent (°)
Pressió (hPa)
Precipitació (mm)
Nota sobre les dades: s'avisa a l'usuari de la provisionalitat i no oficialitat d'aquestes dades
Logo AVAMET blanc
Web allotjada a Sollutia
Llicència de Creative CommonsLa web d'AVAMET i els seus continguts estan subjectes a una llicència de
Reconeixement - No Comercial - Compartir igual
Últimes estacions:  Altea - Com. Regants (Soci), Almoines (Inforatge), Beniparrell (Inforatge), Albal (Inforatge), Almussafes - Parc Industrial (Inforatge), La Vilavella (Soci), la Serratella (soci) - - -